aviador You're here:

LBBG Decoded Metar

BOURGAS in BULGARIA
Report Time2017-11-24 20:00:00
UTC Time2017-11-24 20:18:11
Flight Rules mvfr MVFR
Wind040° at 04 kt
W.Decomp.*RWY 04: 4.0 kt HW 0.3 kt LCW
W.Rank040° ranks 6
Current wind is below 040° avg. (8.8)
Visibility9999 m
Phenomena:N/A
Clouds:Scattered 008 Hf
Scattered 011 Hf
Overcast 015 Hf
Expected CloudBase > 400 ft AGL from Temp-Dew spread
Ceiling1,500 ft
Temp10°C (ISA -5)
Dew Point09°C (94% RH)
AAT8.4°C
QNH1023 hPa
Density Alt-669 ft
Elevation92 ft
Report Wrong Elevation
Raw Report
LBBG 242000Z 04004KT 9999 SCT008 SCT011 OVC015 10/09 Q1023
NOSIG=

Extra information for LBBG:More info

Metar Taf Metar & Taf Last 4 Metars F.Rules Stats Wind Profile Meteogram Temp Stats Airport Information Weather charts Add Link Nearby VenuesMetar ALERT Operation Metar Decoded Social comments